Maldives Meteorological Service

SYNOP

Station Code SYNOP
43555
AAXX 22184 43555 12462 60203 10280 20243 30103 40105 60001 83931 333 59001 82818 81919 84078=
43533
AAXX 22184 43533 11459 59902 10269 20250 30098 40100 60001 70522 82242 333 59006 82818 84077=
43577
AAXX 22184 43577 11460 79901 10266 20249 30105 40107 69971 71382 8397/ 333 58000 81817 82918 87362=
43588
AAXX 22184 43588 12462 73210 10278 20246 30101 40102 60001 83232 333 59003 83818 86362=
43599
AAXX 22184 43599 12460 72707 10277 20248 30100 40102 60001 83262 333 59008 83817 87076=
Last Updated : 2017-11-22 23:03:16